sensor_id;sensor_type;location;lat;lon;timestamp;temperature;humidity
563;DHT22;266;49.514;8.294;2023-07-16T00:00:26;20.00;99.90
563;DHT22;266;49.514;8.294;2023-07-16T00:02:55;20.00;99.90
563;DHT22;266;49.514;8.294;2023-07-16T00:05:23;20.00;99.90
563;DHT22;266;49.514;8.294;2023-07-16T00:07:51;20.00;99.90
563;DHT22;266;49.514;8.294;2023-07-16T00:10:19;20.00;99.90
563;DHT22;266;49.514;8.294;2023-07-16T00:12:47;19.90;99.90
563;DHT22;266;49.514;8.294;2023-07-16T00:15:15;20.00;99.90
563;DHT22;266;49.514;8.294;2023-07-16T00:17:43;19.90;99.90
563;DHT22;266;49.514;8.294;2023-07-16T00:20:13;20.00;99.90
563;DHT22;266;49.514;8.294;2023-07-16T00:22:40;20.00;99.90
563;DHT22;266;49.514;8.294;2023-07-16T00:25:09;20.00;99.90
563;DHT22;266;49.514;8.294;2023-07-16T00:27:37;20.00;99.90
563;DHT22;266;49.514;8.294;2023-07-16T00:30:07;20.00;99.90
563;DHT22;266;49.514;8.294;2023-07-16T00:32:35;19.90;99.90
563;DHT22;266;49.514;8.294;2023-07-16T00:35:03;19.90;99.90
563;DHT22;266;49.514;8.294;2023-07-16T00:37:34;19.90;99.90
563;DHT22;266;49.514;8.294;2023-07-16T00:40:03;19.90;99.90
563;DHT22;266;49.514;8.294;2023-07-16T00:42:32;19.80;99.90
563;DHT22;266;49.514;8.294;2023-07-16T00:45:00;19.80;99.90
563;DHT22;266;49.514;8.294;2023-07-16T00:47:29;19.70;99.90
563;DHT22;266;49.514;8.294;2023-07-16T00:49:58;19.60;99.90
563;DHT22;266;49.514;8.294;2023-07-16T00:52:26;19.60;99.90
563;DHT22;266;49.514;8.294;2023-07-16T00:54:56;19.60;99.90
563;DHT22;266;49.514;8.294;2023-07-16T00:57:24;19.50;99.90
563;DHT22;266;49.514;8.294;2023-07-16T00:59:52;19.50;99.90
563;DHT22;266;49.514;8.294;2023-07-16T01:02:20;19.50;99.90
563;DHT22;266;49.514;8.294;2023-07-16T01:04:48;19.50;99.90
563;DHT22;266;49.514;8.294;2023-07-16T01:07:18;19.40;99.90
563;DHT22;266;49.514;8.294;2023-07-16T01:09:49;19.40;99.90
563;DHT22;266;49.514;8.294;2023-07-16T01:12:20;19.40;99.90
563;DHT22;266;49.514;8.294;2023-07-16T01:14:51;19.30;99.90
563;DHT22;266;49.514;8.294;2023-07-16T01:17:19;19.30;99.90
563;DHT22;266;49.514;8.294;2023-07-16T01:19:48;19.30;99.90
563;DHT22;266;49.514;8.294;2023-07-16T01:22:33;19.30;99.90
563;DHT22;266;49.514;8.294;2023-07-16T01:25:10;19.30;99.90
563;DHT22;266;49.514;8.294;2023-07-16T01:28:09;19.20;99.90
563;DHT22;266;49.514;8.294;2023-07-16T01:30:44;19.20;99.90
563;DHT22;266;49.514;8.294;2023-07-16T01:33:13;19.20;99.90
563;DHT22;266;49.514;8.294;2023-07-16T01:35:43;19.20;99.90
563;DHT22;266;49.514;8.294;2023-07-16T01:38:11;19.20;99.90
563;DHT22;266;49.514;8.294;2023-07-16T01:40:41;19.20;99.90
563;DHT22;266;49.514;8.294;2023-07-16T01:43:09;19.20;99.90
563;DHT22;266;49.514;8.294;2023-07-16T01:45:37;19.20;99.90
563;DHT22;266;49.514;8.294;2023-07-16T01:48:14;19.20;99.90
563;DHT22;266;49.514;8.294;2023-07-16T01:50:45;19.20;99.90
563;DHT22;266;49.514;8.294;2023-07-16T01:53:13;19.20;99.90
563;DHT22;266;49.514;8.294;2023-07-16T01:55:41;19.20;99.90
563;DHT22;266;49.514;8.294;2023-07-16T01:58:08;19.20;99.90
563;DHT22;266;49.514;8.294;2023-07-16T02:00:37;19.20;99.90
563;DHT22;266;49.514;8.294;2023-07-16T02:03:09;19.20;99.90
563;DHT22;266;49.514;8.294;2023-07-16T02:05:37;19.10;99.90
563;DHT22;266;49.514;8.294;2023-07-16T02:08:05;19.10;99.90
563;DHT22;266;49.514;8.294;2023-07-16T02:10:33;19.10;99.90
563;DHT22;266;49.514;8.294;2023-07-16T02:13:01;19.10;99.90
563;DHT22;266;49.514;8.294;2023-07-16T02:15:29;19.10;99.90
563;DHT22;266;49.514;8.294;2023-07-16T02:17:57;19.00;99.90
563;DHT22;266;49.514;8.294;2023-07-16T02:20:26;19.00;99.90
563;DHT22;266;49.514;8.294;2023-07-16T02:22:54;18.90;99.90
563;DHT22;266;49.514;8.294;2023-07-16T02:25:22;18.90;99.90
563;DHT22;266;49.514;8.294;2023-07-16T02:27:50;18.90;99.90
563;DHT22;266;49.514;8.294;2023-07-16T02:30:18;18.80;99.90
563;DHT22;266;49.514;8.294;2023-07-16T02:32:46;18.80;99.90
563;DHT22;266;49.514;8.294;2023-07-16T02:35:15;18.80;99.90
563;DHT22;266;49.514;8.294;2023-07-16T02:37:44;18.70;99.90
563;DHT22;266;49.514;8.294;2023-07-16T02:40:12;18.70;99.90
563;DHT22;266;49.514;8.294;2023-07-16T02:42:41;18.60;99.90
563;DHT22;266;49.514;8.294;2023-07-16T02:45:09;18.60;99.90
563;DHT22;266;49.514;8.294;2023-07-16T02:47:37;18.50;99.90
563;DHT22;266;49.514;8.294;2023-07-16T02:50:06;18.50;99.90
563;DHT22;266;49.514;8.294;2023-07-16T02:52:34;18.40;99.90
563;DHT22;266;49.514;8.294;2023-07-16T02:55:04;18.40;99.90
563;DHT22;266;49.514;8.294;2023-07-16T02:57:32;18.40;99.90
563;DHT22;266;49.514;8.294;2023-07-16T03:00:01;18.40;99.90
563;DHT22;266;49.514;8.294;2023-07-16T03:02:28;18.40;99.90
563;DHT22;266;49.514;8.294;2023-07-16T03:04:57;18.30;99.90
563;DHT22;266;49.514;8.294;2023-07-16T03:07:25;18.30;99.90
563;DHT22;266;49.514;8.294;2023-07-16T03:09:53;18.30;99.90
563;DHT22;266;49.514;8.294;2023-07-16T03:12:22;18.30;99.90
563;DHT22;266;49.514;8.294;2023-07-16T03:14:50;18.20;99.90
563;DHT22;266;49.514;8.294;2023-07-16T03:17:21;18.20;99.90
563;DHT22;266;49.514;8.294;2023-07-16T03:19:49;18.20;99.90
563;DHT22;266;49.514;8.294;2023-07-16T03:22:17;18.20;99.90
563;DHT22;266;49.514;8.294;2023-07-16T03:24:45;18.20;99.90
563;DHT22;266;49.514;8.294;2023-07-16T03:27:14;18.10;99.90
563;DHT22;266;49.514;8.294;2023-07-16T03:29:46;18.10;99.90
563;DHT22;266;49.514;8.294;2023-07-16T03:32:15;18.10;99.90
563;DHT22;266;49.514;8.294;2023-07-16T03:34:42;18.00;99.90
563;DHT22;266;49.514;8.294;2023-07-16T03:37:10;18.00;99.90
563;DHT22;266;49.514;8.294;2023-07-16T03:39:38;18.00;99.90
563;DHT22;266;49.514;8.294;2023-07-16T03:42:06;17.90;99.90
563;DHT22;266;49.514;8.294;2023-07-16T03:44:34;17.90;99.90
563;DHT22;266;49.514;8.294;2023-07-16T03:47:04;17.90;99.90
563;DHT22;266;49.514;8.294;2023-07-16T03:49:32;17.90;99.90
563;DHT22;266;49.514;8.294;2023-07-16T03:52:00;17.90;99.90
563;DHT22;266;49.514;8.294;2023-07-16T03:54:28;17.90;99.90
563;DHT22;266;49.514;8.294;2023-07-16T03:56:56;17.90;99.90
563;DHT22;266;49.514;8.294;2023-07-16T03:59:23;17.80;99.90
563;DHT22;266;49.514;8.294;2023-07-16T04:01:51;17.80;99.90
563;DHT22;266;49.514;8.294;2023-07-16T04:04:21;17.80;99.90
563;DHT22;266;49.514;8.294;2023-07-16T04:06:49;17.80;99.90
563;DHT22;266;49.514;8.294;2023-07-16T04:09:17;17.80;99.90
563;DHT22;266;49.514;8.294;2023-07-16T04:11:45;17.70;99.90
563;DHT22;266;49.514;8.294;2023-07-16T04:14:13;17.80;99.90
563;DHT22;266;49.514;8.294;2023-07-16T04:16:41;17.80;99.90
563;DHT22;266;49.514;8.294;2023-07-16T04:19:09;17.80;99.90
563;DHT22;266;49.514;8.294;2023-07-16T04:21:38;17.80;99.90
563;DHT22;266;49.514;8.294;2023-07-16T04:24:06;17.70;99.90
563;DHT22;266;49.514;8.294;2023-07-16T04:26:34;17.70;99.90
563;DHT22;266;49.514;8.294;2023-07-16T04:29:03;17.70;99.90
563;DHT22;266;49.514;8.294;2023-07-16T04:31:31;17.70;99.90
563;DHT22;266;49.514;8.294;2023-07-16T04:33:59;17.70;99.90
563;DHT22;266;49.514;8.294;2023-07-16T04:36:27;17.70;99.90
563;DHT22;266;49.514;8.294;2023-07-16T04:38:56;17.70;99.90
563;DHT22;266;49.514;8.294;2023-07-16T04:41:24;17.70;99.90
563;DHT22;266;49.514;8.294;2023-07-16T04:43:52;17.80;99.90
563;DHT22;266;49.514;8.294;2023-07-16T04:46:20;17.80;99.90
563;DHT22;266;49.514;8.294;2023-07-16T04:48:48;17.80;99.90
563;DHT22;266;49.514;8.294;2023-07-16T04:51:16;17.90;99.90
563;DHT22;266;49.514;8.294;2023-07-16T04:53:44;17.90;99.90
563;DHT22;266;49.514;8.294;2023-07-16T04:56:14;17.90;99.90
563;DHT22;266;49.514;8.294;2023-07-16T04:58:42;18.00;99.90
563;DHT22;266;49.514;8.294;2023-07-16T05:01:11;18.00;99.90
563;DHT22;266;49.514;8.294;2023-07-16T05:03:39;18.10;99.90
563;DHT22;266;49.514;8.294;2023-07-16T05:06:07;18.10;99.90
563;DHT22;266;49.514;8.294;2023-07-16T05:08:35;18.10;99.90
563;DHT22;266;49.514;8.294;2023-07-16T05:11:03;18.10;99.90
563;DHT22;266;49.514;8.294;2023-07-16T05:13:32;18.20;99.90
563;DHT22;266;49.514;8.294;2023-07-16T05:16:00;18.30;99.90
563;DHT22;266;49.514;8.294;2023-07-16T05:18:28;18.20;99.90
563;DHT22;266;49.514;8.294;2023-07-16T05:20:57;18.30;99.90
563;DHT22;266;49.514;8.294;2023-07-16T05:23:25;18.30;99.90
563;DHT22;266;49.514;8.294;2023-07-16T05:25:53;18.40;99.90
563;DHT22;266;49.514;8.294;2023-07-16T05:28:21;18.30;99.90
563;DHT22;266;49.514;8.294;2023-07-16T05:30:59;18.40;99.90
563;DHT22;266;49.514;8.294;2023-07-16T05:33:27;18.40;99.90
563;DHT22;266;49.514;8.294;2023-07-16T05:35:55;18.50;99.90
563;DHT22;266;49.514;8.294;2023-07-16T05:38:23;18.50;99.90
563;DHT22;266;49.514;8.294;2023-07-16T05:40:51;18.50;99.90
563;DHT22;266;49.514;8.294;2023-07-16T05:43:19;18.50;99.90
563;DHT22;266;49.514;8.294;2023-07-16T05:45:48;18.50;99.90
563;DHT22;266;49.514;8.294;2023-07-16T05:48:17;18.60;99.90
563;DHT22;266;49.514;8.294;2023-07-16T05:50:46;18.60;99.90
563;DHT22;266;49.514;8.294;2023-07-16T05:53:13;18.60;99.90
563;DHT22;266;49.514;8.294;2023-07-16T05:55:42;18.70;99.90
563;DHT22;266;49.514;8.294;2023-07-16T05:58:10;18.70;99.90
563;DHT22;266;49.514;8.294;2023-07-16T06:00:38;18.70;99.90
563;DHT22;266;49.514;8.294;2023-07-16T06:03:07;18.80;99.90
563;DHT22;266;49.514;8.294;2023-07-16T06:05:36;18.80;99.90
563;DHT22;266;49.514;8.294;2023-07-16T06:08:04;18.90;99.90
563;DHT22;266;49.514;8.294;2023-07-16T06:10:33;18.90;99.90
563;DHT22;266;49.514;8.294;2023-07-16T06:13:01;18.90;99.90
563;DHT22;266;49.514;8.294;2023-07-16T06:15:29;19.00;99.90
563;DHT22;266;49.514;8.294;2023-07-16T06:17:57;19.00;99.90
563;DHT22;266;49.514;8.294;2023-07-16T06:20:25;19.10;99.90
563;DHT22;266;49.514;8.294;2023-07-16T06:22:55;19.10;99.90
563;DHT22;266;49.514;8.294;2023-07-16T06:25:23;19.20;99.90
563;DHT22;266;49.514;8.294;2023-07-16T06:27:51;19.20;99.90
563;DHT22;266;49.514;8.294;2023-07-16T06:30:19;19.20;99.90
563;DHT22;266;49.514;8.294;2023-07-16T06:32:47;19.20;99.90
563;DHT22;266;49.514;8.294;2023-07-16T06:35:15;19.30;99.90
563;DHT22;266;49.514;8.294;2023-07-16T06:37:43;19.40;99.90
563;DHT22;266;49.514;8.294;2023-07-16T06:40:13;19.40;99.90
563;DHT22;266;49.514;8.294;2023-07-16T06:42:41;19.50;99.90
563;DHT22;266;49.514;8.294;2023-07-16T06:45:09;19.60;99.90
563;DHT22;266;49.514;8.294;2023-07-16T06:47:37;19.60;99.90
563;DHT22;266;49.514;8.294;2023-07-16T06:50:07;19.70;99.90
563;DHT22;266;49.514;8.294;2023-07-16T06:52:34;19.70;99.90
563;DHT22;266;49.514;8.294;2023-07-16T06:55:05;19.80;99.90
563;DHT22;266;49.514;8.294;2023-07-16T06:57:34;19.80;99.90
563;DHT22;266;49.514;8.294;2023-07-16T07:00:03;19.90;99.90
563;DHT22;266;49.514;8.294;2023-07-16T07:02:37;19.90;99.90
563;DHT22;266;49.514;8.294;2023-07-16T07:05:06;19.90;99.90
563;DHT22;266;49.514;8.294;2023-07-16T07:07:34;20.00;99.90
563;DHT22;266;49.514;8.294;2023-07-16T07:10:02;20.00;99.90
563;DHT22;266;49.514;8.294;2023-07-16T07:12:30;20.10;99.90
563;DHT22;266;49.514;8.294;2023-07-16T07:15:06;20.10;99.90
563;DHT22;266;49.514;8.294;2023-07-16T07:17:35;20.20;99.90
563;DHT22;266;49.514;8.294;2023-07-16T07:20:06;20.30;99.90
563;DHT22;266;49.514;8.294;2023-07-16T07:22:34;20.40;99.90
563;DHT22;266;49.514;8.294;2023-07-16T07:25:03;20.40;99.90
563;DHT22;266;49.514;8.294;2023-07-16T07:27:31;20.50;99.90
563;DHT22;266;49.514;8.294;2023-07-16T07:29:59;20.60;99.90
563;DHT22;266;49.514;8.294;2023-07-16T07:32:29;20.60;99.90
563;DHT22;266;49.514;8.294;2023-07-16T07:34:57;20.70;99.90
563;DHT22;266;49.514;8.294;2023-07-16T07:37:29;20.70;99.90
563;DHT22;266;49.514;8.294;2023-07-16T07:39:59;20.80;99.90
563;DHT22;266;49.514;8.294;2023-07-16T07:42:27;20.80;99.90
563;DHT22;266;49.514;8.294;2023-07-16T07:44:57;20.80;99.90
563;DHT22;266;49.514;8.294;2023-07-16T07:47:25;20.80;99.90
563;DHT22;266;49.514;8.294;2023-07-16T07:49:54;21.00;99.90
563;DHT22;266;49.514;8.294;2023-07-16T07:52:22;21.10;99.90
563;DHT22;266;49.514;8.294;2023-07-16T07:54:50;21.10;99.90
563;DHT22;266;49.514;8.294;2023-07-16T07:57:19;21.10;99.90
563;DHT22;266;49.514;8.294;2023-07-16T07:59:47;21.20;99.90
563;DHT22;266;49.514;8.294;2023-07-16T08:02:18;21.20;99.90
563;DHT22;266;49.514;8.294;2023-07-16T08:04:48;21.20;99.90
563;DHT22;266;49.514;8.294;2023-07-16T08:07:17;21.40;99.90
563;DHT22;266;49.514;8.294;2023-07-16T08:09:45;21.50;99.90
563;DHT22;266;49.514;8.294;2023-07-16T08:12:13;21.60;99.90
563;DHT22;266;49.514;8.294;2023-07-16T08:14:41;21.60;99.90
563;DHT22;266;49.514;8.294;2023-07-16T08:17:09;21.70;99.90
563;DHT22;266;49.514;8.294;2023-07-16T08:19:38;21.80;99.90
563;DHT22;266;49.514;8.294;2023-07-16T08:22:06;22.10;99.90
563;DHT22;266;49.514;8.294;2023-07-16T08:24:35;22.20;99.90
563;DHT22;266;49.514;8.294;2023-07-16T08:27:04;22.40;99.90
563;DHT22;266;49.514;8.294;2023-07-16T08:29:32;22.60;99.90
563;DHT22;266;49.514;8.294;2023-07-16T08:32:00;22.90;99.90
563;DHT22;266;49.514;8.294;2023-07-16T08:34:27;23.10;99.90
563;DHT22;266;49.514;8.294;2023-07-16T08:36:55;23.40;99.90
563;DHT22;266;49.514;8.294;2023-07-16T08:39:23;23.80;99.90
563;DHT22;266;49.514;8.294;2023-07-16T08:41:53;23.90;99.90
563;DHT22;266;49.514;8.294;2023-07-16T08:44:22;23.90;99.90
563;DHT22;266;49.514;8.294;2023-07-16T08:46:50;23.70;99.90
563;DHT22;266;49.514;8.294;2023-07-16T08:49:19;23.40;99.90
563;DHT22;266;49.514;8.294;2023-07-16T08:51:49;23.20;99.90
563;DHT22;266;49.514;8.294;2023-07-16T08:54:17;23.00;99.90
563;DHT22;266;49.514;8.294;2023-07-16T08:56:47;23.00;99.90
563;DHT22;266;49.514;8.294;2023-07-16T08:59:17;23.40;99.90
563;DHT22;266;49.514;8.294;2023-07-16T09:01:46;23.80;99.90
563;DHT22;266;49.514;8.294;2023-07-16T09:04:15;24.30;99.90
563;DHT22;266;49.514;8.294;2023-07-16T09:06:43;24.70;99.90
563;DHT22;266;49.514;8.294;2023-07-16T09:09:19;25.10;99.90
563;DHT22;266;49.514;8.294;2023-07-16T09:11:48;25.60;99.90
563;DHT22;266;49.514;8.294;2023-07-16T09:14:19;25.90;99.90
563;DHT22;266;49.514;8.294;2023-07-16T09:16:48;25.90;99.90
563;DHT22;266;49.514;8.294;2023-07-16T09:19:17;25.60;99.90
563;DHT22;266;49.514;8.294;2023-07-16T09:21:46;25.30;99.90
563;DHT22;266;49.514;8.294;2023-07-16T09:24:15;25.30;99.90
563;DHT22;266;49.514;8.294;2023-07-16T09:26:50;25.50;99.90
563;DHT22;266;49.514;8.294;2023-07-16T09:29:20;25.40;99.90
563;DHT22;266;49.514;8.294;2023-07-16T09:31:54;25.60;99.90
563;DHT22;266;49.514;8.294;2023-07-16T09:34:23;25.80;99.90
563;DHT22;266;49.514;8.294;2023-07-16T09:36:51;25.70;99.90
563;DHT22;266;49.514;8.294;2023-07-16T09:39:19;25.70;99.90
563;DHT22;266;49.514;8.294;2023-07-16T09:41:47;25.90;99.90
563;DHT22;266;49.514;8.294;2023-07-16T09:44:16;25.90;99.90
563;DHT22;266;49.514;8.294;2023-07-16T09:46:46;25.80;99.90
563;DHT22;266;49.514;8.294;2023-07-16T09:49:15;26.00;99.90
563;DHT22;266;49.514;8.294;2023-07-16T09:51:44;26.40;99.90
563;DHT22;266;49.514;8.294;2023-07-16T09:54:13;26.70;99.90
563;DHT22;266;49.514;8.294;2023-07-16T09:56:44;26.40;99.90
563;DHT22;266;49.514;8.294;2023-07-16T09:59:15;26.30;99.90
563;DHT22;266;49.514;8.294;2023-07-16T10:01:45;26.40;99.90
563;DHT22;266;49.514;8.294;2023-07-16T10:04:14;26.80;99.90
563;DHT22;266;49.514;8.294;2023-07-16T10:06:51;27.20;99.90
563;DHT22;266;49.514;8.294;2023-07-16T10:09:35;27.30;99.90
563;DHT22;266;49.514;8.294;2023-07-16T10:12:11;27.00;99.90
563;DHT22;266;49.514;8.294;2023-07-16T10:14:41;26.50;99.90
563;DHT22;266;49.514;8.294;2023-07-16T10:17:14;26.20;99.90
563;DHT22;266;49.514;8.294;2023-07-16T10:19:50;25.80;99.90
563;DHT22;266;49.514;8.294;2023-07-16T10:22:19;25.40;99.90
563;DHT22;266;49.514;8.294;2023-07-16T10:24:53;25.30;99.90
563;DHT22;266;49.514;8.294;2023-07-16T10:27:28;25.40;99.90
563;DHT22;266;49.514;8.294;2023-07-16T10:29:56;25.60;99.90
563;DHT22;266;49.514;8.294;2023-07-16T10:32:28;25.60;99.90
563;DHT22;266;49.514;8.294;2023-07-16T10:34:56;25.40;99.90
563;DHT22;266;49.514;8.294;2023-07-16T10:37:26;25.30;99.90
563;DHT22;266;49.514;8.294;2023-07-16T10:39:55;25.60;99.90
563;DHT22;266;49.514;8.294;2023-07-16T10:42:24;25.90;99.90
563;DHT22;266;49.514;8.294;2023-07-16T10:44:54;26.30;99.90
563;DHT22;266;49.514;8.294;2023-07-16T10:47:23;26.80;99.90
563;DHT22;266;49.514;8.294;2023-07-16T10:49:54;26.70;99.90
563;DHT22;266;49.514;8.294;2023-07-16T10:52:23;26.90;99.90
563;DHT22;266;49.514;8.294;2023-07-16T10:54:52;27.00;99.90
563;DHT22;266;49.514;8.294;2023-07-16T10:57:21;27.20;99.90
563;DHT22;266;49.514;8.294;2023-07-16T10:59:51;27.60;99.90
563;DHT22;266;49.514;8.294;2023-07-16T11:02:21;28.00;99.90
563;DHT22;266;49.514;8.294;2023-07-16T11:04:50;28.40;99.90
563;DHT22;266;49.514;8.294;2023-07-16T11:07:21;28.70;99.90
563;DHT22;266;49.514;8.294;2023-07-16T11:09:51;28.60;99.90
563;DHT22;266;49.514;8.294;2023-07-16T11:12:21;28.20;99.90
563;DHT22;266;49.514;8.294;2023-07-16T11:14:51;27.70;99.90
563;DHT22;266;49.514;8.294;2023-07-16T11:17:20;27.70;99.90
563;DHT22;266;49.514;8.294;2023-07-16T11:19:51;28.10;99.90
563;DHT22;266;49.514;8.294;2023-07-16T11:22:23;28.40;99.90
563;DHT22;266;49.514;8.294;2023-07-16T11:24:52;28.60;99.90
563;DHT22;266;49.514;8.294;2023-07-16T11:27:22;28.60;99.90
563;DHT22;266;49.514;8.294;2023-07-16T11:29:51;28.70;99.90
563;DHT22;266;49.514;8.294;2023-07-16T11:32:30;28.60;99.90
563;DHT22;266;49.514;8.294;2023-07-16T11:35:01;28.60;99.90
563;DHT22;266;49.514;8.294;2023-07-16T11:37:32;28.80;99.90
563;DHT22;266;49.514;8.294;2023-07-16T11:40:03;28.90;99.90
563;DHT22;266;49.514;8.294;2023-07-16T11:42:32;29.20;99.90
563;DHT22;266;49.514;8.294;2023-07-16T11:45:01;29.40;99.90
563;DHT22;266;49.514;8.294;2023-07-16T11:47:30;29.40;99.90
563;DHT22;266;49.514;8.294;2023-07-16T11:49:59;29.30;99.90
563;DHT22;266;49.514;8.294;2023-07-16T11:52:29;29.40;99.90
563;DHT22;266;49.514;8.294;2023-07-16T11:54:58;29.30;99.90
563;DHT22;266;49.514;8.294;2023-07-16T11:57:27;29.10;99.90
563;DHT22;266;49.514;8.294;2023-07-16T11:59:55;29.30;99.90
563;DHT22;266;49.514;8.294;2023-07-16T12:02:25;29.40;99.90
563;DHT22;266;49.514;8.294;2023-07-16T12:04:54;29.60;99.90
563;DHT22;266;49.514;8.294;2023-07-16T12:07:33;29.80;99.90
563;DHT22;266;49.514;8.294;2023-07-16T12:10:05;30.20;99.90
563;DHT22;266;49.514;8.294;2023-07-16T12:12:34;30.60;99.90
563;DHT22;266;49.514;8.294;2023-07-16T12:15:06;30.80;99.90
563;DHT22;266;49.514;8.294;2023-07-16T12:17:34;31.00;99.90
563;DHT22;266;49.514;8.294;2023-07-16T12:20:03;31.20;99.90
563;DHT22;266;49.514;8.294;2023-07-16T12:22:33;31.10;99.90
563;DHT22;266;49.514;8.294;2023-07-16T12:25:03;31.20;99.90
563;DHT22;266;49.514;8.294;2023-07-16T12:27:31;31.30;99.90
563;DHT22;266;49.514;8.294;2023-07-16T12:29:59;31.20;99.90
563;DHT22;266;49.514;8.294;2023-07-16T12:32:27;30.60;99.80
563;DHT22;266;49.514;8.294;2023-07-16T12:34:55;30.50;99.90
563;DHT22;266;49.514;8.294;2023-07-16T12:37:24;30.20;98.80
563;DHT22;266;49.514;8.294;2023-07-16T12:39:53;30.10;98.50
563;DHT22;266;49.514;8.294;2023-07-16T12:42:22;30.10;99.50
563;DHT22;266;49.514;8.294;2023-07-16T12:44:50;30.20;99.90
563;DHT22;266;49.514;8.294;2023-07-16T12:47:20;30.40;98.50
563;DHT22;266;49.514;8.294;2023-07-16T12:49:48;30.60;98.00
563;DHT22;266;49.514;8.294;2023-07-16T12:52:16;31.00;97.30
563;DHT22;266;49.514;8.294;2023-07-16T12:54:45;31.00;95.80
563;DHT22;266;49.514;8.294;2023-07-16T12:57:15;31.20;96.10
563;DHT22;266;49.514;8.294;2023-07-16T12:59:43;31.30;95.30
563;DHT22;266;49.514;8.294;2023-07-16T13:02:13;31.20;93.70
563;DHT22;266;49.514;8.294;2023-07-16T13:04:41;31.20;94.00
563;DHT22;266;49.514;8.294;2023-07-16T13:07:09;31.40;93.40
563;DHT22;266;49.514;8.294;2023-07-16T13:09:37;31.60;93.20
563;DHT22;266;49.514;8.294;2023-07-16T13:12:06;31.20;92.40
563;DHT22;266;49.514;8.294;2023-07-16T13:14:36;31.10;94.00
563;DHT22;266;49.514;8.294;2023-07-16T13:17:04;31.30;92.40
563;DHT22;266;49.514;8.294;2023-07-16T13:19:32;31.50;92.40
563;DHT22;266;49.514;8.294;2023-07-16T13:22:00;31.30;92.60
563;DHT22;266;49.514;8.294;2023-07-16T13:24:28;30.80;92.30
563;DHT22;266;49.514;8.294;2023-07-16T13:26:56;30.70;94.20
563;DHT22;266;49.514;8.294;2023-07-16T13:29:24;30.90;92.40
563;DHT22;266;49.514;8.294;2023-07-16T13:31:53;31.30;92.00
563;DHT22;266;49.514;8.294;2023-07-16T13:34:21;31.90;90.30
563;DHT22;266;49.514;8.294;2023-07-16T13:36:49;32.20;90.20
563;DHT22;266;49.514;8.294;2023-07-16T13:39:17;32.40;88.80
563;DHT22;266;49.514;8.294;2023-07-16T13:41:46;32.40;89.80
563;DHT22;266;49.514;8.294;2023-07-16T13:44:14;32.30;88.70
563;DHT22;266;49.514;8.294;2023-07-16T13:46:42;32.40;86.60
563;DHT22;266;49.514;8.294;2023-07-16T13:49:12;32.60;89.80
563;DHT22;266;49.514;8.294;2023-07-16T13:51:40;32.50;85.40
563;DHT22;266;49.514;8.294;2023-07-16T13:54:11;32.50;84.90
563;DHT22;266;49.514;8.294;2023-07-16T13:56:39;32.70;87.30
563;DHT22;266;49.514;8.294;2023-07-16T13:59:07;32.80;83.60
563;DHT22;266;49.514;8.294;2023-07-16T14:01:38;32.90;81.10
563;DHT22;266;49.514;8.294;2023-07-16T14:04:12;32.90;80.70
563;DHT22;266;49.514;8.294;2023-07-16T14:06:40;32.80;79.70
563;DHT22;266;49.514;8.294;2023-07-16T14:09:08;32.50;76.90
563;DHT22;266;49.514;8.294;2023-07-16T14:11:36;32.50;77.40
563;DHT22;266;49.514;8.294;2023-07-16T14:14:04;32.40;75.70
563;DHT22;266;49.514;8.294;2023-07-16T14:16:32;32.40;75.00
563;DHT22;266;49.514;8.294;2023-07-16T14:19:00;32.20;75.80
563;DHT22;266;49.514;8.294;2023-07-16T14:21:30;32.50;75.20
563;DHT22;266;49.514;8.294;2023-07-16T14:23:58;32.60;72.30
563;DHT22;266;49.514;8.294;2023-07-16T14:26:28;32.40;75.30
563;DHT22;266;49.514;8.294;2023-07-16T14:28:56;32.40;75.40
563;DHT22;266;49.514;8.294;2023-07-16T14:31:25;32.60;69.70
563;DHT22;266;49.514;8.294;2023-07-16T14:33:53;32.80;65.00
563;DHT22;266;49.514;8.294;2023-07-16T14:36:21;32.70;63.90
563;DHT22;266;49.514;8.294;2023-07-16T14:38:51;32.70;64.10
563;DHT22;266;49.514;8.294;2023-07-16T14:41:19;32.40;63.60
563;DHT22;266;49.514;8.294;2023-07-16T14:43:47;32.20;63.50
563;DHT22;266;49.514;8.294;2023-07-16T14:46:16;31.90;63.30
563;DHT22;266;49.514;8.294;2023-07-16T14:48:46;31.70;63.10
563;DHT22;266;49.514;8.294;2023-07-16T14:51:14;31.70;63.40
563;DHT22;266;49.514;8.294;2023-07-16T14:53:44;31.70;63.10
563;DHT22;266;49.514;8.294;2023-07-16T14:56:14;31.80;63.40
563;DHT22;266;49.514;8.294;2023-07-16T14:58:43;31.90;63.30
563;DHT22;266;49.514;8.294;2023-07-16T15:01:11;32.00;63.40
563;DHT22;266;49.514;8.294;2023-07-16T15:03:40;31.70;63.10
563;DHT22;266;49.514;8.294;2023-07-16T15:06:09;31.20;62.80
563;DHT22;266;49.514;8.294;2023-07-16T15:08:37;31.00;62.80
563;DHT22;266;49.514;8.294;2023-07-16T15:11:05;30.50;62.20
563;DHT22;266;49.514;8.294;2023-07-16T15:13:35;29.90;61.80
563;DHT22;266;49.514;8.294;2023-07-16T15:16:04;29.70;61.60
563;DHT22;266;49.514;8.294;2023-07-16T15:18:32;29.80;61.70
563;DHT22;266;49.514;8.294;2023-07-16T15:21:02;30.10;62.00
563;DHT22;266;49.514;8.294;2023-07-16T15:23:31;30.20;62.00
563;DHT22;266;49.514;8.294;2023-07-16T15:26:11;29.90;61.80
563;DHT22;266;49.514;8.294;2023-07-16T15:28:55;29.60;61.80
563;DHT22;266;49.514;8.294;2023-07-16T15:31:24;29.60;61.60
563;DHT22;266;49.514;8.294;2023-07-16T15:33:54;29.60;61.60
563;DHT22;266;49.514;8.294;2023-07-16T15:36:24;29.80;61.70
563;DHT22;266;49.514;8.294;2023-07-16T15:38:53;29.90;61.80
563;DHT22;266;49.514;8.294;2023-07-16T15:41:22;29.90;61.80
563;DHT22;266;49.514;8.294;2023-07-16T15:43:54;29.80;61.70
563;DHT22;266;49.514;8.294;2023-07-16T15:46:22;29.80;61.90
563;DHT22;266;49.514;8.294;2023-07-16T15:48:50;30.00;61.90
563;DHT22;266;49.514;8.294;2023-07-16T15:51:18;29.60;61.60
563;DHT22;266;49.514;8.294;2023-07-16T15:53:52;29.20;61.20
563;DHT22;266;49.514;8.294;2023-07-16T15:56:21;29.20;61.20
563;DHT22;266;49.514;8.294;2023-07-16T15:58:49;29.50;61.70
563;DHT22;266;49.514;8.294;2023-07-16T16:01:18;29.80;61.70
563;DHT22;266;49.514;8.294;2023-07-16T16:03:47;30.00;61.90
563;DHT22;266;49.514;8.294;2023-07-16T16:06:15;30.20;62.20
563;DHT22;266;49.514;8.294;2023-07-16T16:08:44;30.20;62.00
563;DHT22;266;49.514;8.294;2023-07-16T16:11:12;30.10;61.90
563;DHT22;266;49.514;8.294;2023-07-16T16:13:41;30.00;66.30
563;DHT22;266;49.514;8.294;2023-07-16T16:16:10;29.80;61.70
563;DHT22;266;49.514;8.294;2023-07-16T16:18:39;29.70;61.60
563;DHT22;266;49.514;8.294;2023-07-16T16:21:08;29.90;61.80
563;DHT22;266;49.514;8.294;2023-07-16T16:23:36;30.00;61.80
563;DHT22;266;49.514;8.294;2023-07-16T16:26:04;29.90;61.70
563;DHT22;266;49.514;8.294;2023-07-16T16:28:32;29.80;61.70
563;DHT22;266;49.514;8.294;2023-07-16T16:31:00;29.80;61.80
563;DHT22;266;49.514;8.294;2023-07-16T16:33:28;29.70;61.60
563;DHT22;266;49.514;8.294;2023-07-16T16:35:57;29.60;61.50
563;DHT22;266;49.514;8.294;2023-07-16T16:38:26;29.40;61.60
563;DHT22;266;49.514;8.294;2023-07-16T16:40:54;29.20;61.20
563;DHT22;266;49.514;8.294;2023-07-16T16:43:22;29.20;61.20
563;DHT22;266;49.514;8.294;2023-07-16T16:45:50;29.10;61.20